sensor_id;sensor_type;location;lat;lon;timestamp;pressure;altitude;pressure_sealevel;temperature;humidity
67842;BME280;54642;59.126;37.876;2022-11-20T06:30:31;100736.34;;;-7.90;71.38
67842;BME280;54642;59.126;37.876;2022-11-20T06:32:57;100719.38;;;-8.03;71.27
67842;BME280;54642;59.126;37.876;2022-11-20T06:35:23;100741.13;;;-7.93;71.19
67842;BME280;54642;59.126;37.876;2022-11-20T06:37:49;100755.56;;;-7.91;71.42
67842;BME280;54642;59.126;37.876;2022-11-20T06:40:15;100756.59;;;-7.89;71.34
67842;BME280;54642;59.126;37.876;2022-11-20T06:42:41;100751.44;;;-7.90;71.14
67842;BME280;54642;59.126;37.876;2022-11-20T06:45:08;100754.16;;;-7.87;71.22
67842;BME280;54642;59.126;37.876;2022-11-20T06:47:34;100707.56;;;-8.04;71.45
67842;BME280;54642;59.126;37.876;2022-11-20T06:50:00;100721.63;;;-7.96;71.52
67842;BME280;54642;59.126;37.876;2022-11-20T06:52:26;100740.56;;;-7.79;71.30
67842;BME280;54642;59.126;37.876;2022-11-20T06:54:52;100725.22;;;-7.82;71.37
67842;BME280;54642;59.126;37.876;2022-11-20T06:57:18;100737.03;;;-7.71;71.37
67842;BME280;54642;59.126;37.876;2022-11-20T06:59:43;100731.75;;;-7.74;71.31
67842;BME280;54642;59.126;37.876;2022-11-20T07:02:12;100748.41;;;-7.54;70.96
67842;BME280;54642;59.126;37.876;2022-11-20T07:04:39;100740.75;;;-7.55;71.05
67842;BME280;54642;59.126;37.876;2022-11-20T07:07:05;100697.56;;;-7.82;70.94
67842;BME280;54642;59.126;37.876;2022-11-20T07:09:32;100719.44;;;-7.71;70.90
67842;BME280;54642;59.126;37.876;2022-11-20T07:11:59;100727.03;;;-7.59;71.11
67842;BME280;54642;59.126;37.876;2022-11-20T07:14:25;100753.69;;;-7.51;71.01
67842;BME280;54642;59.126;37.876;2022-11-20T07:16:51;100717.38;;;-7.64;71.10
67842;BME280;54642;59.126;37.876;2022-11-20T07:19:17;100715.59;;;-7.66;71.08
67842;BME280;54642;59.126;37.876;2022-11-20T07:21:43;100742.81;;;-7.39;71.07
67842;BME280;54642;59.126;37.876;2022-11-20T07:24:09;100734.59;;;-7.37;71.05
67842;BME280;54642;59.126;37.876;2022-11-20T07:26:35;100745.91;;;-7.32;71.00
67842;BME280;54642;59.126;37.876;2022-11-20T07:29:01;100712.03;;;-7.47;71.12
67842;BME280;54642;59.126;37.876;2022-11-20T07:31:26;100727.94;;;-7.36;71.16
67842;BME280;54642;59.126;37.876;2022-11-20T07:33:52;100737.19;;;-7.25;71.16
67842;BME280;54642;59.126;37.876;2022-11-20T07:36:18;100749.03;;;-7.24;71.01
67842;BME280;54642;59.126;37.876;2022-11-20T07:38:44;100738.97;;;-7.24;71.07
67842;BME280;54642;59.126;37.876;2022-11-20T07:41:10;100713.47;;;-7.39;70.95
67842;BME280;54642;59.126;37.876;2022-11-20T07:43:36;100762.47;;;-7.13;71.13
67842;BME280;54642;59.126;37.876;2022-11-20T07:46:02;100768.94;;;-7.05;71.31
67842;BME280;54642;59.126;37.876;2022-11-20T07:48:29;100759.16;;;-7.12;71.23
67842;BME280;54642;59.126;37.876;2022-11-20T07:50:58;100764.69;;;-7.06;70.96
67842;BME280;54642;59.126;37.876;2022-11-20T07:53:24;100775.03;;;-6.91;71.21
67842;BME280;54642;59.126;37.876;2022-11-20T07:55:50;100779.25;;;-6.80;71.12
67842;BME280;54642;59.126;37.876;2022-11-20T07:58:18;100758.88;;;-6.83;70.94
67842;BME280;54642;59.126;37.876;2022-11-20T08:00:45;100753.72;;;-6.84;70.65
67842;BME280;54642;59.126;37.876;2022-11-20T08:03:11;100784.13;;;-6.71;70.90
67842;BME280;54642;59.126;37.876;2022-11-20T08:05:37;100784.34;;;-6.68;70.87
67842;BME280;54642;59.126;37.876;2022-11-20T08:08:03;100776.84;;;-6.78;70.93
67842;BME280;54642;59.126;37.876;2022-11-20T08:10:29;100775.50;;;-6.85;70.87
67842;BME280;54642;59.126;37.876;2022-11-20T08:12:55;100792.16;;;-6.65;71.07
67842;BME280;54642;59.126;37.876;2022-11-20T08:15:50;100780.78;;;-6.60;70.91
67842;BME280;54642;59.126;37.876;2022-11-20T08:18:16;100784.47;;;-6.66;70.67
67842;BME280;54642;59.126;37.876;2022-11-20T08:20:43;100789.81;;;-6.74;70.90
67842;BME280;54642;59.126;37.876;2022-11-20T08:23:09;100777.97;;;-6.75;71.27
67842;BME280;54642;59.126;37.876;2022-11-20T08:25:36;100782.38;;;-6.72;71.18
67842;BME280;54642;59.126;37.876;2022-11-20T08:28:05;100790.50;;;-6.64;71.16
67842;BME280;54642;59.126;37.876;2022-11-20T08:30:31;100785.81;;;-6.60;71.21
67842;BME280;54642;59.126;37.876;2022-11-20T08:33:06;100787.69;;;-6.57;71.21
67842;BME280;54642;59.126;37.876;2022-11-20T08:35:33;100793.28;;;-6.49;71.23
67842;BME280;54642;59.126;37.876;2022-11-20T08:38:01;100795.06;;;-6.48;71.00
67842;BME280;54642;59.126;37.876;2022-11-20T08:40:27;100788.13;;;-6.51;71.03
67842;BME280;54642;59.126;37.876;2022-11-20T08:42:53;100787.50;;;-6.48;71.06
67842;BME280;54642;59.126;37.876;2022-11-20T08:45:19;100779.44;;;-6.33;70.98
67842;BME280;54642;59.126;37.876;2022-11-20T08:47:46;100769.34;;;-6.33;71.14
67842;BME280;54642;59.126;37.876;2022-11-20T08:50:13;100751.88;;;-6.41;70.59
67842;BME280;54642;59.126;37.876;2022-11-20T08:52:40;100782.50;;;-6.25;70.74
67842;BME280;54642;59.126;37.876;2022-11-20T08:55:07;100781.53;;;-6.27;70.89
67842;BME280;54642;59.126;37.876;2022-11-20T08:57:34;100783.59;;;-6.21;71.06
67842;BME280;54642;59.126;37.876;2022-11-20T09:00:02;100771.88;;;-6.21;71.02
67842;BME280;54642;59.126;37.876;2022-11-20T09:02:28;100777.81;;;-6.20;70.77
67842;BME280;54642;59.126;37.876;2022-11-20T09:04:57;100774.63;;;-6.18;70.99
67842;BME280;54642;59.126;37.876;2022-11-20T09:07:24;100774.19;;;-6.12;70.74
67842;BME280;54642;59.126;37.876;2022-11-20T09:09:49;100770.25;;;-6.08;70.88
67842;BME280;54642;59.126;37.876;2022-11-20T09:12:15;100765.31;;;-6.07;70.82
67842;BME280;54642;59.126;37.876;2022-11-20T09:14:41;100764.88;;;-6.01;70.88
67842;BME280;54642;59.126;37.876;2022-11-20T09:17:07;100759.19;;;-5.99;71.05
67842;BME280;54642;59.126;37.876;2022-11-20T09:19:35;100767.03;;;-5.94;70.91
67842;BME280;54642;59.126;37.876;2022-11-20T09:22:00;100764.34;;;-5.97;70.73
67842;BME280;54642;59.126;37.876;2022-11-20T09:24:27;100771.66;;;-5.88;70.66
67842;BME280;54642;59.126;37.876;2022-11-20T09:26:53;100745.31;;;-5.92;70.71
67842;BME280;54642;59.126;37.876;2022-11-20T09:29:19;100770.91;;;-5.87;70.86
67842;BME280;54642;59.126;37.876;2022-11-20T09:31:45;100753.34;;;-5.86;70.88
67842;BME280;54642;59.126;37.876;2022-11-20T09:34:11;100760.13;;;-5.85;70.87
67842;BME280;54642;59.126;37.876;2022-11-20T09:36:37;100762.66;;;-5.85;70.95
67842;BME280;54642;59.126;37.876;2022-11-20T09:39:03;100758.38;;;-5.86;70.92
67842;BME280;54642;59.126;37.876;2022-11-20T09:41:33;100767.38;;;-5.89;71.06
67842;BME280;54642;59.126;37.876;2022-11-20T09:47:23;100762.97;;;-5.92;70.96
67842;BME280;54642;59.126;37.876;2022-11-20T09:50:42;100753.56;;;-5.95;70.95
67842;BME280;54642;59.126;37.876;2022-11-20T09:56:01;100745.53;;;-5.89;71.24
67842;BME280;54642;59.126;37.876;2022-11-20T09:58:50;100744.97;;;-5.85;71.00
67842;BME280;54642;59.126;37.876;2022-11-20T10:01:19;100747.41;;;-5.86;71.12
67842;BME280;54642;59.126;37.876;2022-11-20T10:04:09;100742.56;;;-5.83;71.14
67842;BME280;54642;59.126;37.876;2022-11-20T10:09:32;100715.63;;;-5.96;70.93
67842;BME280;54642;59.126;37.876;2022-11-20T10:20:32;100724.69;;;-5.75;70.93
67842;BME280;54642;59.126;37.876;2022-11-20T10:23:23;100739.72;;;-5.64;70.99
67842;BME280;54642;59.126;37.876;2022-11-20T10:26:01;100745.63;;;-5.64;70.69
67842;BME280;54642;59.126;37.876;2022-11-20T10:31:26;100723.69;;;-5.65;70.84
67842;BME280;54642;59.126;37.876;2022-11-20T10:33:55;100745.19;;;-5.58;70.67
67842;BME280;54642;59.126;37.876;2022-11-20T10:36:26;100738.63;;;-5.56;70.62
67842;BME280;54642;59.126;37.876;2022-11-20T10:38:59;100735.53;;;-5.52;70.81
67842;BME280;54642;59.126;37.876;2022-11-20T10:41:30;100724.13;;;-5.59;70.72
67842;BME280;54642;59.126;37.876;2022-11-20T10:44:14;100740.88;;;-5.47;70.63
67842;BME280;54642;59.126;37.876;2022-11-20T10:47:01;100717.63;;;-5.55;70.81
67842;BME280;54642;59.126;37.876;2022-11-20T10:49:27;100690.13;;;-5.76;70.36
67842;BME280;54642;59.126;37.876;2022-11-20T10:52:02;100751.75;;;-5.37;70.62
67842;BME280;54642;59.126;37.876;2022-11-20T11:00:10;100742.53;;;-5.48;70.55
67842;BME280;54642;59.126;37.876;2022-11-20T11:02:51;100758.91;;;-5.43;70.55
67842;BME280;54642;59.126;37.876;2022-11-20T11:07:49;100731.13;;;-5.55;70.99
67842;BME280;54642;59.126;37.876;2022-11-20T11:10:33;100757.59;;;-5.38;70.74
67842;BME280;54642;59.126;37.876;2022-11-20T11:12:59;100762.94;;;-5.33;70.50
67842;BME280;54642;59.126;37.876;2022-11-20T11:15:28;100760.22;;;-5.36;70.60
67842;BME280;54642;59.126;37.876;2022-11-20T11:17:55;100764.19;;;-5.40;70.57
67842;BME280;54642;59.126;37.876;2022-11-20T11:20:23;100751.56;;;-5.40;70.58
67842;BME280;54642;59.126;37.876;2022-11-20T11:22:54;100730.38;;;-5.53;70.63
67842;BME280;54642;59.126;37.876;2022-11-20T11:28:01;100765.38;;;-5.34;70.55
67842;BME280;54642;59.126;37.876;2022-11-20T11:30:28;100742.66;;;-5.46;70.62
67842;BME280;54642;59.126;37.876;2022-11-20T11:33:04;100754.81;;;-5.29;70.39
67842;BME280;54642;59.126;37.876;2022-11-20T11:35:31;100763.59;;;-5.24;70.46
67842;BME280;54642;59.126;37.876;2022-11-20T11:38:12;100776.13;;;-5.25;70.19
67842;BME280;54642;59.126;37.876;2022-11-20T11:40:40;100752.41;;;-5.27;70.40
67842;BME280;54642;59.126;37.876;2022-11-20T11:43:17;100732.88;;;-5.42;70.54
67842;BME280;54642;59.126;37.876;2022-11-20T11:46:08;100734.16;;;-5.35;70.48
67842;BME280;54642;59.126;37.876;2022-11-20T11:48:41;100765.44;;;-5.21;70.46
67842;BME280;54642;59.126;37.876;2022-11-20T11:51:08;100765.00;;;-5.15;70.33
67842;BME280;54642;59.126;37.876;2022-11-20T11:53:39;100769.19;;;-5.16;70.24
67842;BME280;54642;59.126;37.876;2022-11-20T11:56:11;100741.28;;;-5.29;70.52
67842;BME280;54642;59.126;37.876;2022-11-20T11:58:51;100757.63;;;-5.12;70.21
67842;BME280;54642;59.126;37.876;2022-11-20T12:04:05;100757.63;;;-5.12;70.42
67842;BME280;54642;59.126;37.876;2022-11-20T12:06:37;100771.69;;;-5.04;70.30
67842;BME280;54642;59.126;37.876;2022-11-20T12:09:09;100777.03;;;-5.00;70.31
67842;BME280;54642;59.126;37.876;2022-11-20T12:11:55;100779.66;;;-4.86;70.20
67842;BME280;54642;59.126;37.876;2022-11-20T12:14:36;100779.84;;;-4.83;70.15
67842;BME280;54642;59.126;37.876;2022-11-20T12:17:03;100782.06;;;-4.88;69.92
67842;BME280;54642;59.126;37.876;2022-11-20T12:19:31;100781.22;;;-5.00;70.06
67842;BME280;54642;59.126;37.876;2022-11-20T12:25:34;100790.16;;;-4.80;69.93
67842;BME280;54642;59.126;37.876;2022-11-20T12:28:16;100796.63;;;-4.72;69.91
67842;BME280;54642;59.126;37.876;2022-11-20T12:36:39;100797.97;;;-4.77;69.86
67842;BME280;54642;59.126;37.876;2022-11-20T12:56:27;100780.78;;;-5.06;70.07
67842;BME280;54642;59.126;37.876;2022-11-20T13:06:53;100760.81;;;-3.34;70.08
67842;BME280;54642;59.126;37.876;2022-11-20T13:09:22;100748.34;;;-2.75;69.65
67842;BME280;54642;59.126;37.876;2022-11-20T13:14:40;100735.63;;;-2.17;68.03
67842;BME280;54642;59.126;37.876;2022-11-20T13:17:36;100739.75;;;-2.19;68.50
67842;BME280;54642;59.126;37.876;2022-11-20T13:20:06;100742.44;;;-1.71;68.37
67842;BME280;54642;59.126;37.876;2022-11-20T13:22:52;100680.13;;;-1.64;67.29
67842;BME280;54642;59.126;37.876;2022-11-20T13:25:23;100749.84;;;-1.28;66.89
67842;BME280;54642;59.126;37.876;2022-11-20T13:27:50;100733.19;;;-1.23;66.88
67842;BME280;54642;59.126;37.876;2022-11-20T13:30:27;100750.81;;;-1.09;66.18
67842;BME280;54642;59.126;37.876;2022-11-20T13:33:01;100753.44;;;-1.08;67.04
67842;BME280;54642;59.126;37.876;2022-11-20T13:35:32;100753.31;;;-0.78;66.25
67842;BME280;54642;59.126;37.876;2022-11-20T13:40:34;100742.28;;;-0.79;65.59
67842;BME280;54642;59.126;37.876;2022-11-20T13:43:11;100717.53;;;-0.81;66.26
67842;BME280;54642;59.126;37.876;2022-11-20T13:45:41;100732.91;;;-0.45;65.36
67842;BME280;54642;59.126;37.876;2022-11-20T13:48:40;100743.63;;;-0.34;65.28
67842;BME280;54642;59.126;37.876;2022-11-20T13:51:37;100740.50;;;-0.12;65.10
67842;BME280;54642;59.126;37.876;2022-11-20T14:01:48;100758.72;;;-0.72;65.10
67842;BME280;54642;59.126;37.876;2022-11-20T14:04:19;100761.03;;;-0.77;64.95
67842;BME280;54642;59.126;37.876;2022-11-20T14:06:48;100736.13;;;-0.99;65.00
67842;BME280;54642;59.126;37.876;2022-11-20T14:09:33;100763.41;;;-0.80;65.12
67842;BME280;54642;59.126;37.876;2022-11-20T14:12:03;100730.16;;;-0.83;65.13
67842;BME280;54642;59.126;37.876;2022-11-20T14:14:32;100761.25;;;-0.39;65.27
67842;BME280;54642;59.126;37.876;2022-11-20T14:17:18;100753.50;;;-0.24;64.16
67842;BME280;54642;59.126;37.876;2022-11-20T14:19:45;100744.88;;;-0.44;64.36
67842;BME280;54642;59.126;37.876;2022-11-20T14:24:48;100749.56;;;-0.85;64.47
67842;BME280;54642;59.126;37.876;2022-11-20T14:27:20;100751.63;;;-1.42;64.43
67842;BME280;54642;59.126;37.876;2022-11-20T14:29:49;100764.53;;;-2.00;65.46
67842;BME280;54642;59.126;37.876;2022-11-20T14:32:17;100772.69;;;-2.63;66.32
67842;BME280;54642;59.126;37.876;2022-11-20T14:34:46;100765.63;;;-3.11;66.73
67842;BME280;54642;59.126;37.876;2022-11-20T14:37:32;100774.88;;;-3.39;67.41
67842;BME280;54642;59.126;37.876;2022-11-20T14:39:59;100764.63;;;-3.68;67.73
67842;BME280;54642;59.126;37.876;2022-11-20T14:42:28;100789.50;;;-3.75;68.03
67842;BME280;54642;59.126;37.876;2022-11-20T14:45:02;100794.03;;;-3.83;68.05
67842;BME280;54642;59.126;37.876;2022-11-20T14:47:30;100776.59;;;-3.92;68.23
67842;BME280;54642;59.126;37.876;2022-11-20T14:49:57;100792.41;;;-3.83;68.33
67842;BME280;54642;59.126;37.876;2022-11-20T14:52:28;100784.00;;;-3.81;68.20
67842;BME280;54642;59.126;37.876;2022-11-20T14:54:58;100779.75;;;-3.83;67.87
67842;BME280;54642;59.126;37.876;2022-11-20T14:57:31;100800.78;;;-3.84;67.85
67842;BME280;54642;59.126;37.876;2022-11-20T15:02:41;100758.06;;;-4.17;67.97
67842;BME280;54642;59.126;37.876;2022-11-20T15:05:07;100806.97;;;-3.92;67.94
67842;BME280;54642;59.126;37.876;2022-11-20T15:07:39;100799.47;;;-4.04;67.93
67842;BME280;54642;59.126;37.876;2022-11-20T15:10:25;100795.06;;;-4.06;67.88
67842;BME280;54642;59.126;37.876;2022-11-20T15:12:53;100813.31;;;-3.98;67.97
67842;BME280;54642;59.126;37.876;2022-11-20T15:15:31;100810.59;;;-3.88;67.90
67842;BME280;54642;59.126;37.876;2022-11-20T15:18:01;100787.03;;;-4.00;67.85
67842;BME280;54642;59.126;37.876;2022-11-20T15:20:30;100781.16;;;-3.99;67.58
67842;BME280;54642;59.126;37.876;2022-11-20T15:22:56;100811.22;;;-3.79;67.75
67842;BME280;54642;59.126;37.876;2022-11-20T15:25:22;100771.44;;;-4.07;67.53
67842;BME280;54642;59.126;37.876;2022-11-20T15:27:55;100823.19;;;-3.76;67.57
67842;BME280;54642;59.126;37.876;2022-11-20T15:30:23;100816.13;;;-3.94;67.56
67842;BME280;54642;59.126;37.876;2022-11-20T15:32:49;100828.25;;;-3.90;67.80
67842;BME280;54642;59.126;37.876;2022-11-20T15:35:15;100792.38;;;-4.09;67.77
67842;BME280;54642;59.126;37.876;2022-11-20T15:37:41;100822.28;;;-3.90;67.88
67842;BME280;54642;59.126;37.876;2022-11-20T15:40:08;100794.22;;;-4.07;67.83
67842;BME280;54642;59.126;37.876;2022-11-20T15:42:34;100820.72;;;-3.88;67.95
67842;BME280;54642;59.126;37.876;2022-11-20T15:45:01;100800.25;;;-4.05;67.86
67842;BME280;54642;59.126;37.876;2022-11-20T15:47:34;100812.25;;;-4.02;68.01
67842;BME280;54642;59.126;37.876;2022-11-20T15:50:00;100807.34;;;-3.99;68.19
67842;BME280;54642;59.126;37.876;2022-11-20T15:52:27;100817.31;;;-3.89;68.08
67842;BME280;54642;59.126;37.876;2022-11-20T15:54:53;100801.53;;;-3.98;67.96
67842;BME280;54642;59.126;37.876;2022-11-20T15:57:19;100810.00;;;-3.97;68.06
67842;BME280;54642;59.126;37.876;2022-11-20T15:59:44;100807.97;;;-3.90;68.05
67842;BME280;54642;59.126;37.876;2022-11-20T16:02:11;100817.31;;;-3.89;68.13
67842;BME280;54642;59.126;37.876;2022-11-20T16:04:37;100817.22;;;-3.90;68.20
67842;BME280;54642;59.126;37.876;2022-11-20T16:07:03;100808.63;;;-3.92;68.23
67842;BME280;54642;59.126;37.876;2022-11-20T16:09:29;100820.81;;;-3.87;68.05
67842;BME280;54642;59.126;37.876;2022-11-20T16:11:55;100825.41;;;-3.94;68.13
67842;BME280;54642;59.126;37.876;2022-11-20T16:14:21;100828.78;;;-3.94;68.17
67842;BME280;54642;59.126;37.876;2022-11-20T16:17:06;100810.19;;;-4.08;68.03
67842;BME280;54642;59.126;37.876;2022-11-20T16:19:31;100831.75;;;-3.88;68.09
67842;BME280;54642;59.126;37.876;2022-11-20T16:21:58;100832.94;;;-3.83;68.08
67842;BME280;54642;59.126;37.876;2022-11-20T16:24:26;100831.75;;;-3.74;67.74
67842;BME280;54642;59.126;37.876;2022-11-20T16:26:59;100797.94;;;-3.88;67.66
67842;BME280;54642;59.126;37.876;2022-11-20T16:29:27;100776.38;;;-4.08;67.42
67842;BME280;54642;59.126;37.876;2022-11-20T16:31:53;100769.59;;;-3.96;67.50
67842;BME280;54642;59.126;37.876;2022-11-20T16:34:19;100809.94;;;-3.72;67.24
67842;BME280;54642;59.126;37.876;2022-11-20T16:36:46;100792.69;;;-3.78;67.25
67842;BME280;54642;59.126;37.876;2022-11-20T16:39:37;100808.69;;;-3.79;67.42
67842;BME280;54642;59.126;37.876;2022-11-20T16:42:04;100800.88;;;-3.82;67.69
67842;BME280;54642;59.126;37.876;2022-11-20T16:44:30;100791.03;;;-3.77;67.71
67842;BME280;54642;59.126;37.876;2022-11-20T16:46:56;100796.69;;;-3.68;67.70
67842;BME280;54642;59.126;37.876;2022-11-20T16:49:22;100782.28;;;-3.83;67.88
67842;BME280;54642;59.126;37.876;2022-11-20T16:51:52;100795.81;;;-3.69;67.70
67842;BME280;54642;59.126;37.876;2022-11-20T16:55:14;100723.78;;;-4.26;67.81
67842;BME280;54642;59.126;37.876;2022-11-20T16:57:50;100756.72;;;-4.12;68.11
67842;BME280;54642;59.126;37.876;2022-11-20T17:04:15;100713.88;;;-4.36;67.79
67842;BME280;54642;59.126;37.876;2022-11-20T17:10:46;100769.22;;;-4.02;67.91
67842;BME280;54642;59.126;37.876;2022-11-20T17:13:58;100749.50;;;-4.19;67.92
67842;BME280;54642;59.126;37.876;2022-11-20T17:19:41;100738.31;;;-4.23;67.95
67842;BME280;54642;59.126;37.876;2022-11-20T17:22:47;100738.09;;;-4.26;67.85
67842;BME280;54642;59.126;37.876;2022-11-20T17:25:13;100789.78;;;-3.84;67.95
67842;BME280;54642;59.126;37.876;2022-11-20T17:27:39;100814.03;;;-3.61;68.03
67842;BME280;54642;59.126;37.876;2022-11-20T17:30:05;100806.94;;;-3.67;68.01
67842;BME280;54642;59.126;37.876;2022-11-20T17:32:32;100779.06;;;-3.93;68.25
67842;BME280;54642;59.126;37.876;2022-11-20T17:34:58;100820.84;;;-3.73;68.39
67842;BME280;54642;59.126;37.876;2022-11-20T17:37:27;100819.09;;;-3.74;68.36
67842;BME280;54642;59.126;37.876;2022-11-20T17:39:52;100799.00;;;-3.85;68.54
67842;BME280;54642;59.126;37.876;2022-11-20T17:42:18;100819.00;;;-3.62;68.51
67842;BME280;54642;59.126;37.876;2022-11-20T17:45:03;100787.22;;;-3.71;68.26
67842;BME280;54642;59.126;37.876;2022-11-20T17:47:29;100811.69;;;-3.58;68.36
67842;BME280;54642;59.126;37.876;2022-11-20T17:49:55;100814.91;;;-3.60;68.34
67842;BME280;54642;59.126;37.876;2022-11-20T17:52:21;100732.75;;;-4.17;68.69
67842;BME280;54642;59.126;37.876;2022-11-20T17:54:47;100747.34;;;-4.13;68.75
67842;BME280;54642;59.126;37.876;2022-11-20T17:57:13;100831.38;;;-3.80;68.86
67842;BME280;54642;59.126;37.876;2022-11-20T17:59:57;100778.53;;;-4.14;68.92
67842;BME280;54642;59.126;37.876;2022-11-20T18:02:23;100802.66;;;-4.06;69.16
67842;BME280;54642;59.126;37.876;2022-11-20T18:04:49;100825.50;;;-3.93;69.25
67842;BME280;54642;59.126;37.876;2022-11-20T18:07:15;100826.63;;;-4.01;69.34
67842;BME280;54642;59.126;37.876;2022-11-20T18:09:47;100830.13;;;-3.99;69.18
67842;BME280;54642;59.126;37.876;2022-11-20T18:12:12;100820.13;;;-3.97;69.49
67842;BME280;54642;59.126;37.876;2022-11-20T18:14:38;100821.78;;;-3.98;69.53
67842;BME280;54642;59.126;37.876;2022-11-20T18:17:11;100765.44;;;-4.34;69.62
67842;BME280;54642;59.126;37.876;2022-11-20T18:19:40;100816.50;;;-4.14;69.37
67842;BME280;54642;59.126;37.876;2022-11-20T18:22:06;100785.47;;;-4.37;69.69
67842;BME280;54642;59.126;37.876;2022-11-20T18:24:36;100817.13;;;-4.30;69.54
67842;BME280;54642;59.126;37.876;2022-11-20T18:27:05;100837.59;;;-4.27;69.64
67842;BME280;54642;59.126;37.876;2022-11-20T18:29:34;100785.59;;;-4.61;69.52
67842;BME280;54642;59.126;37.876;2022-11-20T18:32:00;100835.50;;;-4.33;69.50
67842;BME280;54642;59.126;37.876;2022-11-20T18:34:26;100814.25;;;-4.48;69.58
67842;BME280;54642;59.126;37.876;2022-11-20T18:36:52;100824.88;;;-4.41;69.59
67842;BME280;54642;59.126;37.876;2022-11-20T18:39:18;100810.91;;;-4.47;70.01
67842;BME280;54642;59.126;37.876;2022-11-20T18:41:44;100821.56;;;-4.39;69.88
67842;BME280;54642;59.126;37.876;2022-11-20T18:44:30;100806.44;;;-4.51;69.69
67842;BME280;54642;59.126;37.876;2022-11-20T18:47:19;100815.31;;;-4.45;69.71
67842;BME280;54642;59.126;37.876;2022-11-20T18:49:48;100823.22;;;-4.40;69.81
67842;BME280;54642;59.126;37.876;2022-11-20T18:54:52;100830.16;;;-4.37;69.79
67842;BME280;54642;59.126;37.876;2022-11-20T18:57:20;100833.31;;;-4.40;69.94
67842;BME280;54642;59.126;37.876;2022-11-20T18:59:46;100822.47;;;-4.51;69.86
67842;BME280;54642;59.126;37.876;2022-11-20T19:02:16;100834.69;;;-4.45;69.98
67842;BME280;54642;59.126;37.876;2022-11-20T19:04:43;100832.94;;;-4.46;70.02
67842;BME280;54642;59.126;37.876;2022-11-20T19:07:10;100835.56;;;-4.45;69.86
67842;BME280;54642;59.126;37.876;2022-11-20T19:09:40;100829.31;;;-4.50;70.02
67842;BME280;54642;59.126;37.876;2022-11-20T19:12:08;100837.31;;;-4.44;69.84
67842;BME280;54642;59.126;37.876;2022-11-20T19:14:41;100835.66;;;-4.43;69.87
67842;BME280;54642;59.126;37.876;2022-11-20T19:17:07;100820.06;;;-4.49;69.93
67842;BME280;54642;59.126;37.876;2022-11-20T19:19:34;100832.16;;;-4.45;69.94
67842;BME280;54642;59.126;37.876;2022-11-20T19:22:00;100824.25;;;-4.50;69.97
67842;BME280;54642;59.126;37.876;2022-11-20T19:24:26;100820.06;;;-4.49;70.02
67842;BME280;54642;59.126;37.876;2022-11-20T19:26:53;100835.66;;;-4.43;70.06
67842;BME280;54642;59.126;37.876;2022-11-20T19:29:22;100823.91;;;-4.43;70.00
67842;BME280;54642;59.126;37.876;2022-11-20T19:31:48;100827.72;;;-4.36;70.07
67842;BME280;54642;59.126;37.876;2022-11-20T19:34:14;100829.31;;;-4.25;69.87
67842;BME280;54642;59.126;37.876;2022-11-20T19:36:41;100824.59;;;-4.32;69.90
67842;BME280;54642;59.126;37.876;2022-11-20T19:39:08;100841.75;;;-4.28;70.02
67842;BME280;54642;59.126;37.876;2022-11-20T19:41:37;100831.22;;;-4.34;69.83
67842;BME280;54642;59.126;37.876;2022-11-20T19:44:12;100830.75;;;-4.28;70.02
67842;BME280;54642;59.126;37.876;2022-11-20T19:46:44;100837.38;;;-4.30;69.71
67842;BME280;54642;59.126;37.876;2022-11-20T19:49:12;100836.41;;;-4.32;69.91
67842;BME280;54642;59.126;37.876;2022-11-20T19:51:43;100790.66;;;-4.61;69.88
67842;BME280;54642;59.126;37.876;2022-11-20T19:54:10;100846.69;;;-4.29;70.02
67842;BME280;54642;59.126;37.876;2022-11-20T19:56:35;100823.22;;;-4.40;70.03
67842;BME280;54642;59.126;37.876;2022-11-20T19:59:01;100846.66;;;-4.17;70.18
67842;BME280;54642;59.126;37.876;2022-11-20T20:01:29;100842.69;;;-4.14;69.82
67842;BME280;54642;59.126;37.876;2022-11-20T20:03:57;100817.94;;;-4.18;69.56
67842;BME280;54642;59.126;37.876;2022-11-20T20:06:26;100848.06;;;-4.09;69.95
67842;BME280;54642;59.126;37.876;2022-11-20T20:08:58;100862.44;;;-4.08;69.78
67842;BME280;54642;59.126;37.876;2022-11-20T20:11:25;100838.59;;;-4.12;69.60
67842;BME280;54642;59.126;37.876;2022-11-20T20:13:52;100844.63;;;-4.10;69.71
67842;BME280;54642;59.126;37.876;2022-11-20T20:16:23;100857.28;;;-4.10;69.77
67842;BME280;54642;59.126;37.876;2022-11-20T20:18:53;100861.91;;;-4.04;69.99
67842;BME280;54642;59.126;37.876;2022-11-20T20:21:20;100864.50;;;-4.03;69.94
67842;BME280;54642;59.126;37.876;2022-11-20T20:23:49;100853.31;;;-4.06;69.87
67842;BME280;54642;59.126;37.876;2022-11-20T20:26:16;100864.94;;;-3.96;69.89
67842;BME280;54642;59.126;37.876;2022-11-20T20:28:42;100857.00;;;-4.01;69.92
67842;BME280;54642;59.126;37.876;2022-11-20T20:31:14;100850.47;;;-4.11;69.82
67842;BME280;54642;59.126;37.876;2022-11-20T20:33:40;100857.97;;;-4.12;69.98
67842;BME280;54642;59.126;37.876;2022-11-20T20:36:08;100855.66;;;-4.09;70.17
67842;BME280;54642;59.126;37.876;2022-11-20T20:38:34;100853.22;;;-4.08;70.14
67842;BME280;54642;59.126;37.876;2022-11-20T20:41:00;100860.53;;;-3.99;70.15
67842;BME280;54642;59.126;37.876;2022-11-20T20:43:27;100847.16;;;-4.10;70.13
67842;BME280;54642;59.126;37.876;2022-11-20T20:45:53;100848.59;;;-4.13;70.01
67842;BME280;54642;59.126;37.876;2022-11-20T20:48:25;100845.31;;;-4.12;70.13
67842;BME280;54642;59.126;37.876;2022-11-20T20:50:58;100838.19;;;-4.18;70.23
67842;BME280;54642;59.126;37.876;2022-11-20T20:53:29;100859.81;;;-4.10;70.40
67842;BME280;54642;59.126;37.876;2022-11-20T20:55:59;100855.44;;;-4.12;70.45
67842;BME280;54642;59.126;37.876;2022-11-20T20:58:26;100853.78;;;-4.12;70.29
67842;BME280;54642;59.126;37.876;2022-11-20T21:00:52;100853.03;;;-3.97;70.44
67842;BME280;54642;59.126;37.876;2022-11-20T21:03:19;100850.72;;;-3.94;70.38
67842;BME280;54642;59.126;37.876;2022-11-20T21:05:54;100834.13;;;-4.03;70.32